sensor_id;sensor_type;location;lat;lon;timestamp;temperature;humidity
46752;DHT22;32497;48.936;9.270;2022-12-19T00:01:03;-3274.60;81.50
46752;DHT22;32497;48.936;9.270;2022-12-19T00:06:04;-3274.60;81.30
46752;DHT22;32497;48.936;9.270;2022-12-19T00:11:06;-3274.50;81.00
46752;DHT22;32497;48.936;9.270;2022-12-19T00:16:11;-3274.50;81.20
46752;DHT22;32497;48.936;9.270;2022-12-19T00:21:14;-3274.40;81.10
46752;DHT22;32497;48.936;9.270;2022-12-19T00:26:17;-3274.30;82.30
46752;DHT22;32497;48.936;9.270;2022-12-19T00:31:22;-3274.40;82.20
46752;DHT22;32497;48.936;9.270;2022-12-19T00:36:25;-3274.30;82.50
46752;DHT22;32497;48.936;9.270;2022-12-19T00:41:28;-3274.20;82.90
46752;DHT22;32497;48.936;9.270;2022-12-19T00:46:32;-3274.30;83.10
46752;DHT22;32497;48.936;9.270;2022-12-19T00:51:35;-3274.40;83.40
46752;DHT22;32497;48.936;9.270;2022-12-19T00:56:37;-3274.50;83.30
46752;DHT22;32497;48.936;9.270;2022-12-19T01:01:41;-3274.70;82.80
46752;DHT22;32497;48.936;9.270;2022-12-19T01:06:43;-3274.70;82.50
46752;DHT22;32497;48.936;9.270;2022-12-19T01:11:44;-3274.70;82.60
46752;DHT22;32497;48.936;9.270;2022-12-19T01:16:46;-3274.80;81.90
46752;DHT22;32497;48.936;9.270;2022-12-19T01:21:47;-3274.90;81.80
46752;DHT22;32497;48.936;9.270;2022-12-19T01:26:48;-3275.00;83.10
46752;DHT22;32497;48.936;9.270;2022-12-19T01:31:51;-3275.10;82.80
46752;DHT22;32497;48.936;9.270;2022-12-19T01:36:52;-3275.10;82.10
46752;DHT22;32497;48.936;9.270;2022-12-19T01:41:53;-3275.00;82.80
46752;DHT22;32497;48.936;9.270;2022-12-19T01:46:56;-3275.00;83.20
46752;DHT22;32497;48.936;9.270;2022-12-19T01:52:01;-3274.90;83.40
46752;DHT22;32497;48.936;9.270;2022-12-19T01:57:06;-3275.00;83.50
46752;DHT22;32497;48.936;9.270;2022-12-19T02:02:13;-3275.00;83.70
46752;DHT22;32497;48.936;9.270;2022-12-19T02:07:17;-3275.00;84.30
46752;DHT22;32497;48.936;9.270;2022-12-19T02:12:18;-3275.20;83.70
46752;DHT22;32497;48.936;9.270;2022-12-19T02:17:30;-3275.30;83.40
46752;DHT22;32497;48.936;9.270;2022-12-19T02:22:48;-3275.30;83.80
46752;DHT22;32497;48.936;9.270;2022-12-19T02:28:11;-3275.50;83.70
46752;DHT22;32497;48.936;9.270;2022-12-19T02:33:33;-3275.60;83.50
46752;DHT22;32497;48.936;9.270;2022-12-19T02:38:45;-3275.70;83.10
46752;DHT22;32497;48.936;9.270;2022-12-19T02:43:50;-3275.80;82.60
46752;DHT22;32497;48.936;9.270;2022-12-19T02:48:54;-3275.90;82.60
46752;DHT22;32497;48.936;9.270;2022-12-19T02:53:55;-3276.00;82.20
46752;DHT22;32497;48.936;9.270;2022-12-19T02:59:05;-3276.20;82.00
46752;DHT22;32497;48.936;9.270;2022-12-19T03:04:19;-3276.30;81.90
46752;DHT22;32497;48.936;9.270;2022-12-19T03:09:31;-3276.40;82.10
46752;DHT22;32497;48.936;9.270;2022-12-19T03:14:34;-3276.50;81.70
46752;DHT22;32497;48.936;9.270;2022-12-19T03:19:39;-3276.60;81.50
46752;DHT22;32497;48.936;9.270;2022-12-19T03:24:40;0.00;81.50
46752;DHT22;32497;48.936;9.270;2022-12-19T03:29:44;0.10;81.40
46752;DHT22;32497;48.936;9.270;2022-12-19T03:34:50;0.00;81.40
46752;DHT22;32497;48.936;9.270;2022-12-19T03:39:54;0.00;82.00
46752;DHT22;32497;48.936;9.270;2022-12-19T03:44:59;-3276.70;82.10
46752;DHT22;32497;48.936;9.270;2022-12-19T03:50:04;-3276.60;81.70
46752;DHT22;32497;48.936;9.270;2022-12-19T03:55:10;-3276.60;81.90
46752;DHT22;32497;48.936;9.270;2022-12-19T04:00:14;-3276.70;81.80
46752;DHT22;32497;48.936;9.270;2022-12-19T04:05:20;-3276.70;81.60
46752;DHT22;32497;48.936;9.270;2022-12-19T04:10:24;-3276.70;81.20
46752;DHT22;32497;48.936;9.270;2022-12-19T04:15:33;0.00;81.30
46752;DHT22;32497;48.936;9.270;2022-12-19T04:20:37;0.10;81.20
46752;DHT22;32497;48.936;9.270;2022-12-19T04:25:44;0.10;81.70
46752;DHT22;32497;48.936;9.270;2022-12-19T04:30:47;0.10;82.20
46752;DHT22;32497;48.936;9.270;2022-12-19T04:35:50;0.00;83.30
46752;DHT22;32497;48.936;9.270;2022-12-19T04:40:51;0.10;83.70
46752;DHT22;32497;48.936;9.270;2022-12-19T04:45:53;0.10;83.60
46752;DHT22;32497;48.936;9.270;2022-12-19T04:50:56;0.00;83.80
46752;DHT22;32497;48.936;9.270;2022-12-19T04:56:00;0.10;84.10
46752;DHT22;32497;48.936;9.270;2022-12-19T05:01:02;0.10;83.30
46752;DHT22;32497;48.936;9.270;2022-12-19T05:06:07;0.20;83.50
46752;DHT22;32497;48.936;9.270;2022-12-19T05:11:09;0.20;83.80
46752;DHT22;32497;48.936;9.270;2022-12-19T05:16:11;0.20;83.40
46752;DHT22;32497;48.936;9.270;2022-12-19T05:21:14;0.30;83.40
46752;DHT22;32497;48.936;9.270;2022-12-19T05:26:15;0.40;83.10
46752;DHT22;32497;48.936;9.270;2022-12-19T05:31:19;0.30;83.40
46752;DHT22;32497;48.936;9.270;2022-12-19T05:36:21;0.40;83.10
46752;DHT22;32497;48.936;9.270;2022-12-19T05:41:22;0.50;83.70
46752;DHT22;32497;48.936;9.270;2022-12-19T05:46:24;0.50;83.40
46752;DHT22;32497;48.936;9.270;2022-12-19T05:51:26;0.50;84.10
46752;DHT22;32497;48.936;9.270;2022-12-19T05:56:28;0.40;84.80
46752;DHT22;32497;48.936;9.270;2022-12-19T06:01:29;0.40;85.30
46752;DHT22;32497;48.936;9.270;2022-12-19T06:06:31;0.40;85.30
46752;DHT22;32497;48.936;9.270;2022-12-19T06:11:32;0.40;85.00
46752;DHT22;32497;48.936;9.270;2022-12-19T06:16:33;0.50;84.90
46752;DHT22;32497;48.936;9.270;2022-12-19T06:21:36;0.60;84.50
46752;DHT22;32497;48.936;9.270;2022-12-19T06:26:37;0.60;84.50
46752;DHT22;32497;48.936;9.270;2022-12-19T06:31:38;0.70;84.20
46752;DHT22;32497;48.936;9.270;2022-12-19T06:36:40;0.80;83.90
46752;DHT22;32497;48.936;9.270;2022-12-19T06:41:41;0.80;83.90
46752;DHT22;32497;48.936;9.270;2022-12-19T06:46:43;0.80;84.10
46752;DHT22;32497;48.936;9.270;2022-12-19T06:51:47;0.80;83.90
46752;DHT22;32497;48.936;9.270;2022-12-19T06:56:48;0.90;83.90
46752;DHT22;32497;48.936;9.270;2022-12-19T07:01:54;1.00;84.10
46752;DHT22;32497;48.936;9.270;2022-12-19T07:06:58;1.00;83.90
46752;DHT22;32497;48.936;9.270;2022-12-19T07:11:59;1.10;84.10
46752;DHT22;32497;48.936;9.270;2022-12-19T07:17:01;1.20;84.00
46752;DHT22;32497;48.936;9.270;2022-12-19T07:22:05;1.30;84.10
46752;DHT22;32497;48.936;9.270;2022-12-19T07:27:06;1.30;84.00
46752;DHT22;32497;48.936;9.270;2022-12-19T07:32:07;1.20;83.60
46752;DHT22;32497;48.936;9.270;2022-12-19T07:37:09;1.20;83.20
46752;DHT22;32497;48.936;9.270;2022-12-19T07:42:11;1.30;83.30
46752;DHT22;32497;48.936;9.270;2022-12-19T07:47:13;1.30;83.60
46752;DHT22;32497;48.936;9.270;2022-12-19T07:52:15;1.40;83.50
46752;DHT22;32497;48.936;9.270;2022-12-19T07:57:16;1.60;82.80
46752;DHT22;32497;48.936;9.270;2022-12-19T08:02:17;1.70;82.80
46752;DHT22;32497;48.936;9.270;2022-12-19T08:07:20;1.80;82.70
46752;DHT22;32497;48.936;9.270;2022-12-19T08:12:21;1.90;82.70
46752;DHT22;32497;48.936;9.270;2022-12-19T08:17:22;2.10;82.30
46752;DHT22;32497;48.936;9.270;2022-12-19T08:22:24;2.20;82.70
46752;DHT22;32497;48.936;9.270;2022-12-19T08:27:25;2.30;82.30
46752;DHT22;32497;48.936;9.270;2022-12-19T08:32:27;2.40;81.80
46752;DHT22;32497;48.936;9.270;2022-12-19T08:37:29;2.60;82.00
46752;DHT22;32497;48.936;9.270;2022-12-19T08:42:30;2.70;81.50
46752;DHT22;32497;48.936;9.270;2022-12-19T08:47:31;2.90;81.20
46752;DHT22;32497;48.936;9.270;2022-12-19T08:52:34;2.70;81.20
46752;DHT22;32497;48.936;9.270;2022-12-19T08:57:35;2.90;80.60
46752;DHT22;32497;48.936;9.270;2022-12-19T09:02:36;3.10;80.70
46752;DHT22;32497;48.936;9.270;2022-12-19T09:07:40;2.90;80.90
46752;DHT22;32497;48.936;9.270;2022-12-19T09:12:42;3.20;81.00
46752;DHT22;32497;48.936;9.270;2022-12-19T09:35:56;3.50;80.20
46752;DHT22;32497;48.936;9.270;2022-12-19T09:41:08;3.60;80.20
46752;DHT22;32497;48.936;9.270;2022-12-19T09:46:18;3.80;79.40
46752;DHT22;32497;48.936;9.270;2022-12-19T09:51:30;3.90;78.80
46752;DHT22;32497;48.936;9.270;2022-12-19T09:56:37;4.20;78.10
46752;DHT22;32497;48.936;9.270;2022-12-19T10:01:48;4.50;77.30
46752;DHT22;32497;48.936;9.270;2022-12-19T10:06:52;4.80;76.50
46752;DHT22;32497;48.936;9.270;2022-12-19T10:12:05;4.90;76.40
46752;DHT22;32497;48.936;9.270;2022-12-19T10:17:21;5.00;76.30
46752;DHT22;32497;48.936;9.270;2022-12-19T10:22:34;5.10;76.00
46752;DHT22;32497;48.936;9.270;2022-12-19T10:27:44;5.30;75.00
46752;DHT22;32497;48.936;9.270;2022-12-19T10:32:55;5.10;75.30
46752;DHT22;32497;48.936;9.270;2022-12-19T10:38:07;5.20;75.10
46752;DHT22;32497;48.936;9.270;2022-12-19T10:43:19;5.60;74.70
46752;DHT22;32497;48.936;9.270;2022-12-19T10:48:22;5.80;73.90
46752;DHT22;32497;48.936;9.270;2022-12-19T10:53:28;5.90;73.30
46752;DHT22;32497;48.936;9.270;2022-12-19T10:58:32;6.00;73.40
46752;DHT22;32497;48.936;9.270;2022-12-19T11:03:34;6.10;73.00
46752;DHT22;32497;48.936;9.270;2022-12-19T11:08:37;6.10;73.20
46752;DHT22;32497;48.936;9.270;2022-12-19T11:13:40;6.10;73.10
46752;DHT22;32497;48.936;9.270;2022-12-19T11:18:43;6.40;72.20
46752;DHT22;32497;48.936;9.270;2022-12-19T11:23:49;6.50;71.80
46752;DHT22;32497;48.936;9.270;2022-12-19T11:28:50;6.40;71.70
46752;DHT22;32497;48.936;9.270;2022-12-19T11:33:53;6.50;72.20
46752;DHT22;32497;48.936;9.270;2022-12-19T11:38:56;6.60;71.50
46752;DHT22;32497;48.936;9.270;2022-12-19T11:44:00;6.50;71.70
46752;DHT22;32497;48.936;9.270;2022-12-19T11:49:07;6.20;72.20
46752;DHT22;32497;48.936;9.270;2022-12-19T11:54:18;6.00;73.10
46752;DHT22;32497;48.936;9.270;2022-12-19T11:59:26;6.10;73.20
46752;DHT22;32497;48.936;9.270;2022-12-19T12:10:16;6.40;72.30
46752;DHT22;32497;48.936;9.270;2022-12-19T12:15:31;6.30;72.90
46752;DHT22;32497;48.936;9.270;2022-12-19T12:20:38;6.40;72.90
46752;DHT22;32497;48.936;9.270;2022-12-19T12:25:50;6.50;72.50
46752;DHT22;32497;48.936;9.270;2022-12-19T12:31:00;6.40;72.40
46752;DHT22;32497;48.936;9.270;2022-12-19T12:36:07;6.50;73.00
46752;DHT22;32497;48.936;9.270;2022-12-19T12:41:23;6.80;71.20
46752;DHT22;32497;48.936;9.270;2022-12-19T12:46:31;6.90;71.50
46752;DHT22;32497;48.936;9.270;2022-12-19T12:51:34;7.00;71.00
46752;DHT22;32497;48.936;9.270;2022-12-19T12:56:38;7.10;71.20
46752;DHT22;32497;48.936;9.270;2022-12-19T13:01:40;7.10;71.20
46752;DHT22;32497;48.936;9.270;2022-12-19T13:12:02;7.20;71.10
46752;DHT22;32497;48.936;9.270;2022-12-19T13:17:12;7.40;70.60
46752;DHT22;32497;48.936;9.270;2022-12-19T13:22:35;7.60;70.40
46752;DHT22;32497;48.936;9.270;2022-12-19T13:27:39;7.90;68.40
46752;DHT22;32497;48.936;9.270;2022-12-19T13:33:06;7.60;69.40
46752;DHT22;32497;48.936;9.270;2022-12-19T13:38:18;7.50;70.10
46752;DHT22;32497;48.936;9.270;2022-12-19T13:43:25;6.90;71.50
46752;DHT22;32497;48.936;9.270;2022-12-19T13:48:29;6.70;72.50
46752;DHT22;32497;48.936;9.270;2022-12-19T13:53:32;6.50;73.30
46752;DHT22;32497;48.936;9.270;2022-12-19T13:58:38;6.30;73.80
46752;DHT22;32497;48.936;9.270;2022-12-19T14:03:45;6.10;74.50
46752;DHT22;32497;48.936;9.270;2022-12-19T14:08:48;6.00;75.30
46752;DHT22;32497;48.936;9.270;2022-12-19T14:13:56;5.80;75.80
46752;DHT22;32497;48.936;9.270;2022-12-19T14:18:58;5.80;76.00
46752;DHT22;32497;48.936;9.270;2022-12-19T14:24:10;5.60;76.60
46752;DHT22;32497;48.936;9.270;2022-12-19T14:29:15;5.50;77.20
46752;DHT22;32497;48.936;9.270;2022-12-19T14:34:22;5.50;77.70
46752;DHT22;32497;48.936;9.270;2022-12-19T14:39:28;5.40;78.00
46752;DHT22;32497;48.936;9.270;2022-12-19T14:44:48;5.20;78.30
46752;DHT22;32497;48.936;9.270;2022-12-19T14:49:50;5.10;78.60
46752;DHT22;32497;48.936;9.270;2022-12-19T14:55:14;5.10;79.00
46752;DHT22;32497;48.936;9.270;2022-12-19T15:00:28;5.00;79.40
46752;DHT22;32497;48.936;9.270;2022-12-19T15:05:29;5.10;79.30
46752;DHT22;32497;48.936;9.270;2022-12-19T15:10:32;5.00;79.60
46752;DHT22;32497;48.936;9.270;2022-12-19T15:15:40;4.90;79.90
46752;DHT22;32497;48.936;9.270;2022-12-19T15:20:41;4.80;80.30
46752;DHT22;32497;48.936;9.270;2022-12-19T15:25:42;4.70;80.70
46752;DHT22;32497;48.936;9.270;2022-12-19T15:30:46;4.60;81.10
46752;DHT22;32497;48.936;9.270;2022-12-19T15:35:48;4.50;81.30
46752;DHT22;32497;48.936;9.270;2022-12-19T15:40:49;4.50;81.50
46752;DHT22;32497;48.936;9.270;2022-12-19T15:45:57;4.50;81.60
46752;DHT22;32497;48.936;9.270;2022-12-19T15:50:58;4.50;81.50
46752;DHT22;32497;48.936;9.270;2022-12-19T15:56:00;4.40;82.00
46752;DHT22;32497;48.936;9.270;2022-12-19T16:01:04;4.50;81.80
46752;DHT22;32497;48.936;9.270;2022-12-19T16:06:08;4.50;81.50
46752;DHT22;32497;48.936;9.270;2022-12-19T16:11:16;4.60;81.50
46752;DHT22;32497;48.936;9.270;2022-12-19T16:16:19;4.70;81.40
46752;DHT22;32497;48.936;9.270;2022-12-19T16:21:22;4.70;81.30
46752;DHT22;32497;48.936;9.270;2022-12-19T16:26:30;4.70;81.50
46752;DHT22;32497;48.936;9.270;2022-12-19T16:31:33;4.60;81.70
46752;DHT22;32497;48.936;9.270;2022-12-19T16:36:34;4.80;81.30
46752;DHT22;32497;48.936;9.270;2022-12-19T16:41:36;4.80;81.20
46752;DHT22;32497;48.936;9.270;2022-12-19T16:46:38;4.90;80.80
46752;DHT22;32497;48.936;9.270;2022-12-19T16:51:40;4.80;81.10
46752;DHT22;32497;48.936;9.270;2022-12-19T16:56:44;4.90;81.00
46752;DHT22;32497;48.936;9.270;2022-12-19T17:01:47;4.90;80.90
46752;DHT22;32497;48.936;9.270;2022-12-19T17:06:50;5.00;80.70
46752;DHT22;32497;48.936;9.270;2022-12-19T17:11:54;5.00;80.80
46752;DHT22;32497;48.936;9.270;2022-12-19T17:16:58;5.00;81.00
46752;DHT22;32497;48.936;9.270;2022-12-19T17:21:59;4.90;81.20
46752;DHT22;32497;48.936;9.270;2022-12-19T17:27:00;5.00;81.10
46752;DHT22;32497;48.936;9.270;2022-12-19T17:32:03;4.90;80.90
46752;DHT22;32497;48.936;9.270;2022-12-19T17:37:04;5.00;81.00
46752;DHT22;32497;48.936;9.270;2022-12-19T17:42:19;5.10;81.00
46752;DHT22;32497;48.936;9.270;2022-12-19T17:47:29;5.10;80.90
46752;DHT22;32497;48.936;9.270;2022-12-19T17:52:33;5.10;80.90
46752;DHT22;32497;48.936;9.270;2022-12-19T17:57:35;5.10;80.70
46752;DHT22;32497;48.936;9.270;2022-12-19T18:02:37;5.10;80.90
46752;DHT22;32497;48.936;9.270;2022-12-19T18:07:39;5.10;80.90
46752;DHT22;32497;48.936;9.270;2022-12-19T18:12:40;5.10;80.90
46752;DHT22;32497;48.936;9.270;2022-12-19T18:17:43;5.00;81.10
46752;DHT22;32497;48.936;9.270;2022-12-19T18:22:44;5.10;81.10
46752;DHT22;32497;48.936;9.270;2022-12-19T18:27:45;5.00;81.10
46752;DHT22;32497;48.936;9.270;2022-12-19T18:32:50;4.90;81.30
46752;DHT22;32497;48.936;9.270;2022-12-19T18:37:52;4.90;81.60
46752;DHT22;32497;48.936;9.270;2022-12-19T18:42:53;4.90;81.20
46752;DHT22;32497;48.936;9.270;2022-12-19T18:47:58;4.90;81.10
46752;DHT22;32497;48.936;9.270;2022-12-19T18:52:59;5.00;81.10
46752;DHT22;32497;48.936;9.270;2022-12-19T18:58:00;4.90;81.10
46752;DHT22;32497;48.936;9.270;2022-12-19T19:03:05;5.00;81.00
46752;DHT22;32497;48.936;9.270;2022-12-19T19:08:18;5.00;80.90
46752;DHT22;32497;48.936;9.270;2022-12-19T19:13:25;4.90;80.80
46752;DHT22;32497;48.936;9.270;2022-12-19T19:18:29;4.50;81.30
46752;DHT22;32497;48.936;9.270;2022-12-19T19:23:33;4.20;82.40
46752;DHT22;32497;48.936;9.270;2022-12-19T19:28:35;4.40;82.40
46752;DHT22;32497;48.936;9.270;2022-12-19T19:33:39;4.30;82.40
46752;DHT22;32497;48.936;9.270;2022-12-19T19:38:44;4.40;82.40
46752;DHT22;32497;48.936;9.270;2022-12-19T19:43:46;4.40;82.30
46752;DHT22;32497;48.936;9.270;2022-12-19T19:48:49;4.40;82.00
46752;DHT22;32497;48.936;9.270;2022-12-19T19:53:50;4.40;81.90
46752;DHT22;32497;48.936;9.270;2022-12-19T19:58:51;4.30;81.90
46752;DHT22;32497;48.936;9.270;2022-12-19T20:03:53;3.90;82.90
46752;DHT22;32497;48.936;9.270;2022-12-19T20:08:54;3.90;83.50
46752;DHT22;32497;48.936;9.270;2022-12-19T20:13:55;4.10;83.10
46752;DHT22;32497;48.936;9.270;2022-12-19T20:18:58;3.80;83.00
46752;DHT22;32497;48.936;9.270;2022-12-19T20:23:59;3.60;84.00
46752;DHT22;32497;48.936;9.270;2022-12-19T20:29:00;3.50;84.40
46752;DHT22;32497;48.936;9.270;2022-12-19T20:34:03;3.30;84.90
46752;DHT22;32497;48.936;9.270;2022-12-19T20:39:05;3.40;85.10
46752;DHT22;32497;48.936;9.270;2022-12-19T20:44:06;3.50;84.80
46752;DHT22;32497;48.936;9.270;2022-12-19T20:49:09;3.60;84.50
46752;DHT22;32497;48.936;9.270;2022-12-19T20:54:10;3.70;84.00
46752;DHT22;32497;48.936;9.270;2022-12-19T20:59:11;3.80;84.30
46752;DHT22;32497;48.936;9.270;2022-12-19T21:04:14;4.20;83.80
46752;DHT22;32497;48.936;9.270;2022-12-19T21:09:15;4.40;83.20
46752;DHT22;32497;48.936;9.270;2022-12-19T21:14:16;4.40;82.50
46752;DHT22;32497;48.936;9.270;2022-12-19T21:19:19;4.00;83.20
46752;DHT22;32497;48.936;9.270;2022-12-19T21:24:20;4.00;83.90
46752;DHT22;32497;48.936;9.270;2022-12-19T21:29:21;4.20;83.50
46752;DHT22;32497;48.936;9.270;2022-12-19T21:34:23;4.30;83.30
46752;DHT22;32497;48.936;9.270;2022-12-19T21:39:24;4.40;83.10
46752;DHT22;32497;48.936;9.270;2022-12-19T21:44:25;4.40;82.90
46752;DHT22;32497;48.936;9.270;2022-12-19T21:49:28;4.40;82.80
46752;DHT22;32497;48.936;9.270;2022-12-19T21:54:29;4.40;83.00
46752;DHT22;32497;48.936;9.270;2022-12-19T21:59:30;4.50;83.20
46752;DHT22;32497;48.936;9.270;2022-12-19T22:04:32;4.60;82.90
46752;DHT22;32497;48.936;9.270;2022-12-19T22:09:33;4.70;82.60
46752;DHT22;32497;48.936;9.270;2022-12-19T22:14:34;4.70;82.50
46752;DHT22;32497;48.936;9.270;2022-12-19T22:19:37;4.80;82.30
46752;DHT22;32497;48.936;9.270;2022-12-19T22:24:38;4.60;81.60
46752;DHT22;32497;48.936;9.270;2022-12-19T22:29:39;4.40;82.20
46752;DHT22;32497;48.936;9.270;2022-12-19T22:34:41;4.20;82.50
46752;DHT22;32497;48.936;9.270;2022-12-19T22:39:46;4.20;83.00
46752;DHT22;32497;48.936;9.270;2022-12-19T22:44:47;4.20;82.90
46752;DHT22;32497;48.936;9.270;2022-12-19T22:49:51;4.10;82.90
46752;DHT22;32497;48.936;9.270;2022-12-19T22:54:52;4.10;83.50
46752;DHT22;32497;48.936;9.270;2022-12-19T22:59:53;4.00;83.90
46752;DHT22;32497;48.936;9.270;2022-12-19T23:04:56;4.10;84.10
46752;DHT22;32497;48.936;9.270;2022-12-19T23:09:57;4.10;83.90
46752;DHT22;32497;48.936;9.270;2022-12-19T23:14:58;4.20;84.00
46752;DHT22;32497;48.936;9.270;2022-12-19T23:20:00;4.30;83.80
46752;DHT22;32497;48.936;9.270;2022-12-19T23:25:01;4.30;83.70
46752;DHT22;32497;48.936;9.270;2022-12-19T23:30:03;4.40;83.70
46752;DHT22;32497;48.936;9.270;2022-12-19T23:35:06;4.40;83.40
46752;DHT22;32497;48.936;9.270;2022-12-19T23:40:08;4.40;83.10
46752;DHT22;32497;48.936;9.270;2022-12-19T23:45:10;4.40;83.60
46752;DHT22;32497;48.936;9.270;2022-12-19T23:50:13;4.30;83.60
46752;DHT22;32497;48.936;9.270;2022-12-19T23:55:14;4.30;83.80
